createdAt,value
2022-11-14T00:00:30.779Z,12.57
2022-11-14T00:03:15.844Z,14.87
2022-11-14T00:06:04.659Z,14.70
2022-11-14T00:08:49.976Z,14.87
2022-11-14T00:11:34.899Z,14.40
2022-11-14T00:14:20.306Z,14.67
2022-11-14T00:17:05.677Z,14.47
2022-11-14T00:19:50.983Z,16.70
2022-11-14T00:22:36.414Z,16.90
2022-11-14T00:25:21.729Z,16.47
2022-11-14T00:28:06.947Z,15.90
2022-11-14T00:30:51.867Z,17.90
2022-11-14T00:33:37.510Z,16.83
2022-11-14T00:36:22.400Z,18.43
2022-11-14T00:39:07.446Z,18.57
2022-11-14T00:41:52.431Z,18.37
2022-11-14T00:44:37.444Z,18.23
2022-11-14T00:47:22.634Z,18.40
2022-11-14T00:50:08.149Z,19.47
2022-11-14T00:52:53.058Z,19.13
2022-11-14T00:55:38.041Z,20.17
2022-11-14T00:58:23.405Z,21.33
2022-11-14T01:01:08.538Z,22.47
2022-11-14T01:03:53.843Z,22.80
2022-11-14T01:06:38.687Z,21.37
2022-11-14T01:09:23.815Z,21.30
2022-11-14T01:12:09.298Z,21.80
2022-11-14T01:14:54.309Z,22.90
2022-11-14T01:17:39.570Z,23.97
2022-11-14T01:20:25.065Z,22.03
2022-11-14T01:23:11.119Z,23.30
2022-11-14T01:26:01.174Z,22.33
2022-11-14T01:28:46.559Z,22.10
2022-11-14T01:31:31.508Z,20.90
2022-11-14T01:34:16.852Z,22.83
2022-11-14T01:37:01.803Z,21.80
2022-11-14T01:39:47.118Z,20.90
2022-11-14T01:42:32.512Z,21.17
2022-11-14T01:45:41.164Z,21.23
2022-11-14T01:48:38.740Z,22.07
2022-11-14T01:51:28.799Z,20.77
2022-11-14T01:54:19.739Z,20.77
2022-11-14T01:57:05.511Z,20.87
2022-11-14T01:59:53.862Z,22.17
2022-11-14T02:02:39.266Z,20.37
2022-11-14T02:05:24.357Z,20.10
2022-11-14T02:08:11.565Z,21.13
2022-11-14T02:10:56.694Z,21.60
2022-11-14T02:13:41.958Z,20.30
2022-11-14T02:16:27.582Z,20.23
2022-11-14T02:19:15.099Z,19.97
2022-11-14T02:22:00.026Z,19.00
2022-11-14T02:24:45.380Z,19.63
2022-11-14T02:27:31.471Z,19.73
2022-11-14T02:30:18.269Z,19.03
2022-11-14T02:33:11.518Z,20.10
2022-11-14T02:35:57.763Z,19.83
2022-11-14T02:38:42.800Z,18.77
2022-11-14T02:41:27.913Z,20.20
2022-11-14T02:44:14.052Z,20.20
2022-11-14T02:46:59.141Z,19.03
2022-11-14T02:49:44.260Z,20.17
2022-11-14T02:52:29.744Z,19.73
2022-11-14T02:55:14.886Z,20.03
2022-11-14T02:58:00.205Z,19.60
2022-11-14T03:01:13.741Z,19.83
2022-11-14T03:03:50.290Z,20.30
2022-11-14T03:06:35.307Z,22.03
2022-11-14T03:09:20.706Z,20.90
2022-11-14T03:12:06.022Z,21.47
2022-11-14T03:14:51.259Z,23.13
2022-11-14T03:17:36.679Z,24.77
2022-11-14T03:20:21.956Z,21.57
2022-11-14T03:23:06.987Z,23.83
2022-11-14T03:25:51.783Z,25.33
2022-11-14T03:28:37.522Z,25.27
2022-11-14T03:31:22.499Z,24.37
2022-11-14T03:34:07.573Z,25.13
2022-11-14T03:36:52.732Z,23.63
2022-11-14T03:39:37.888Z,24.47
2022-11-14T03:42:23.270Z,25.70
2022-11-14T03:45:08.403Z,25.30
2022-11-14T03:47:54.680Z,26.13
2022-11-14T03:50:40.502Z,25.53
2022-11-14T03:53:25.492Z,25.47
2022-11-14T03:56:10.761Z,24.23
2022-11-14T03:58:55.659Z,24.90
2022-11-14T04:01:41.009Z,24.57
2022-11-14T04:04:26.181Z,24.50
2022-11-14T04:07:11.247Z,24.57
2022-11-14T04:09:56.840Z,25.37
2022-11-14T04:12:41.917Z,25.97
2022-11-14T04:15:27.131Z,23.90
2022-11-14T04:18:12.537Z,26.97
2022-11-14T04:20:57.835Z,25.83
2022-11-14T04:23:43.183Z,24.40
2022-11-14T04:26:28.219Z,27.20
2022-11-14T04:29:13.280Z,25.03
2022-11-14T04:31:58.136Z,23.43
2022-11-14T04:34:43.103Z,23.67
2022-11-14T04:37:28.474Z,25.13
2022-11-14T04:40:13.539Z,26.43
2022-11-14T04:42:58.490Z,24.47
2022-11-14T04:45:43.406Z,26.37
2022-11-14T04:48:28.764Z,25.03
2022-11-14T04:51:14.417Z,25.17
2022-11-14T04:53:59.563Z,24.70
2022-11-14T04:56:44.463Z,25.43
2022-11-14T04:59:29.598Z,24.10
2022-11-14T05:02:15.070Z,23.80
2022-11-14T05:05:00.327Z,25.10
2022-11-14T05:07:45.382Z,24.27
2022-11-14T05:10:30.395Z,24.60
2022-11-14T05:13:15.740Z,23.63
2022-11-14T05:16:01.351Z,23.60
2022-11-14T05:18:47.217Z,24.37
2022-11-14T05:21:32.578Z,24.23
2022-11-14T05:24:19.304Z,23.27
2022-11-14T05:27:04.575Z,24.17
2022-11-14T05:29:49.889Z,24.80
2022-11-14T05:32:34.889Z,24.30
2022-11-14T05:35:20.310Z,24.23
2022-11-14T05:38:05.394Z,25.53
2022-11-14T05:40:50.641Z,23.30
2022-11-14T05:43:35.926Z,23.10
2022-11-14T05:46:21.069Z,23.80
2022-11-14T05:49:06.005Z,25.43
2022-11-14T05:51:50.930Z,25.57
2022-11-14T05:54:35.937Z,25.00
2022-11-14T05:57:20.935Z,22.80
2022-11-14T06:00:06.540Z,23.77
2022-11-14T06:02:55.027Z,25.00
2022-11-14T06:05:40.493Z,23.80
2022-11-14T06:08:27.475Z,24.97
2022-11-14T06:11:17.733Z,24.70
2022-11-14T06:14:08.172Z,24.43
2022-11-14T06:16:56.329Z,24.50
2022-11-14T06:19:41.359Z,22.73
2022-11-14T06:22:26.397Z,22.87
2022-11-14T06:25:12.278Z,23.53
2022-11-14T06:27:58.875Z,23.43
2022-11-14T06:30:43.793Z,22.67
2022-11-14T06:33:29.861Z,22.00
2022-11-14T06:36:15.159Z,21.93
2022-11-14T06:39:00.529Z,21.93
2022-11-14T06:41:45.878Z,23.40
2022-11-14T06:44:31.409Z,22.57
2022-11-14T06:47:16.562Z,22.50
2022-11-14T06:50:01.840Z,24.03
2022-11-14T06:52:46.945Z,21.73
2022-11-14T06:55:32.409Z,20.10
2022-11-14T06:58:17.260Z,20.07
2022-11-14T07:01:06.057Z,21.57
2022-11-14T07:03:51.090Z,21.37
2022-11-14T07:06:36.198Z,21.27
2022-11-14T07:09:21.328Z,20.00
2022-11-14T07:12:06.262Z,21.10
2022-11-14T07:14:51.146Z,22.57
2022-11-14T07:17:36.380Z,23.43
2022-11-14T07:20:21.551Z,21.77
2022-11-14T07:23:06.808Z,21.93
2022-11-14T07:25:52.097Z,22.00
2022-11-14T07:28:37.934Z,19.97
2022-11-14T07:31:22.824Z,21.53
2022-11-14T07:34:09.051Z,21.80
2022-11-14T07:36:55.111Z,20.23
2022-11-14T07:39:40.306Z,20.50
2022-11-14T07:42:28.386Z,20.83
2022-11-14T07:45:13.691Z,20.30
2022-11-14T07:48:00.373Z,20.30
2022-11-14T07:50:47.249Z,21.27
2022-11-14T07:53:32.987Z,19.63
2022-11-14T07:56:18.178Z,20.70
2022-11-14T07:59:03.141Z,21.73
2022-11-14T08:01:48.170Z,22.33
2022-11-14T08:04:33.392Z,20.87
2022-11-14T08:07:18.595Z,21.20
2022-11-14T08:10:04.142Z,20.97
2022-11-14T08:13:24.859Z,22.03
2022-11-14T08:16:11.970Z,20.33
2022-11-14T08:18:58.383Z,21.57
2022-11-14T08:21:44.112Z,20.53
2022-11-14T08:24:29.177Z,21.87
2022-11-14T08:27:14.555Z,21.30
2022-11-14T08:29:59.450Z,21.73
2022-11-14T08:32:44.864Z,23.27
2022-11-14T08:35:30.221Z,20.33
2022-11-14T08:38:15.490Z,22.07
2022-11-14T08:41:01.913Z,23.03
2022-11-14T08:43:46.988Z,21.53
2022-11-14T08:46:32.290Z,22.47
2022-11-14T08:49:17.664Z,22.83
2022-11-14T08:52:03.010Z,21.50
2022-11-14T08:54:48.260Z,21.37
2022-11-14T08:57:33.302Z,22.43
2022-11-14T09:00:18.527Z,22.17
2022-11-14T09:03:10.361Z,22.63
2022-11-14T09:05:55.811Z,21.77
2022-11-14T09:08:40.910Z,22.00
2022-11-14T09:11:25.937Z,21.40
2022-11-14T09:14:11.292Z,21.50
2022-11-14T09:16:59.637Z,22.47
2022-11-14T09:19:47.441Z,22.07
2022-11-14T09:22:32.726Z,20.47
2022-11-14T09:25:17.891Z,23.10
2022-11-14T09:28:04.390Z,22.67
2022-11-14T09:30:49.490Z,23.33
2022-11-14T09:33:34.803Z,23.90
2022-11-14T09:36:19.889Z,23.23
2022-11-14T09:39:05.214Z,22.63
2022-11-14T09:41:50.516Z,21.23
2022-11-14T09:44:35.903Z,21.43
2022-11-14T09:47:23.582Z,20.13
2022-11-14T09:50:12.008Z,19.93
2022-11-14T09:52:58.010Z,21.47
2022-11-14T09:55:43.331Z,21.63
2022-11-14T09:58:28.977Z,21.60
2022-11-14T10:01:31.038Z,23.50
2022-11-14T10:04:19.328Z,22.77
2022-11-14T10:07:14.738Z,22.63
2022-11-14T10:10:08.051Z,23.27
2022-11-14T10:13:01.862Z,23.00
2022-11-14T10:15:46.851Z,21.97
2022-11-14T10:18:50.278Z,21.70
2022-11-14T10:21:54.156Z,21.83
2022-11-14T10:24:57.555Z,22.13
2022-11-14T10:27:45.646Z,22.17
2022-11-14T10:30:36.490Z,19.23
2022-11-14T10:33:22.195Z,20.63
2022-11-14T10:36:25.267Z,21.00
2022-11-14T10:39:24.609Z,21.00
2022-11-14T10:42:13.311Z,20.63
2022-11-14T10:45:02.920Z,19.50
2022-11-14T10:47:56.863Z,17.93
2022-11-14T10:50:46.385Z,18.37
2022-11-14T10:53:31.405Z,19.33
2022-11-14T10:56:16.279Z,19.47
2022-11-14T10:59:01.499Z,18.77
2022-11-14T11:01:58.834Z,17.33
2022-11-14T11:04:44.629Z,17.23
2022-11-14T11:07:48.500Z,15.83
2022-11-14T11:10:53.520Z,16.83
2022-11-14T11:13:48.400Z,16.20
2022-11-14T11:16:33.648Z,17.20
2022-11-14T11:19:18.967Z,16.73
2022-11-14T11:22:04.145Z,17.20
2022-11-14T11:24:49.326Z,15.93
2022-11-14T11:27:34.280Z,17.83
2022-11-14T11:30:20.667Z,17.23
2022-11-14T11:33:21.485Z,17.07
2022-11-14T11:36:12.410Z,16.80
2022-11-14T11:38:57.905Z,16.80
2022-11-14T11:44:53.728Z,15.90
2022-11-14T11:47:39.699Z,16.30
2022-11-14T11:50:26.049Z,16.50
2022-11-14T11:53:34.188Z,16.83
2022-11-14T11:56:22.250Z,16.30
2022-11-14T11:59:17.901Z,17.77
2022-11-14T12:02:20.623Z,18.57
2022-11-14T12:05:06.120Z,19.03
2022-11-14T12:08:04.321Z,17.77
2022-11-14T12:10:49.535Z,18.60
2022-11-14T12:13:34.579Z,19.17
2022-11-14T12:16:31.967Z,17.67
2022-11-14T12:19:32.374Z,17.97
2022-11-14T12:22:17.531Z,18.63
2022-11-14T12:25:14.843Z,18.90
2022-11-14T12:28:15.351Z,17.20
2022-11-14T12:31:03.314Z,18.03
2022-11-14T12:33:53.064Z,17.27
2022-11-14T12:36:39.673Z,18.00
2022-11-14T12:39:28.656Z,17.30
2022-11-14T12:42:19.320Z,17.10
2022-11-14T12:45:04.842Z,16.97
2022-11-14T12:48:16.313Z,18.37
2022-11-14T12:51:02.637Z,16.93
2022-11-14T12:53:47.735Z,17.63
2022-11-14T12:56:32.666Z,16.60
2022-11-14T12:59:25.069Z,16.00
2022-11-14T13:02:21.988Z,15.97
2022-11-14T13:05:07.626Z,15.00
2022-11-14T13:07:55.725Z,14.20
2022-11-14T13:10:41.117Z,16.30
2022-11-14T13:13:44.938Z,16.43
2022-11-14T13:16:49.787Z,14.97
2022-11-14T13:19:53.771Z,14.90
2022-11-14T13:22:40.497Z,16.20
2022-11-14T13:25:26.038Z,15.40
2022-11-14T13:28:39.889Z,15.50
2022-11-14T13:31:26.366Z,16.03
2022-11-14T13:34:17.608Z,16.13
2022-11-14T13:37:21.579Z,15.03
2022-11-14T13:40:25.050Z,15.57
2022-11-14T13:43:10.005Z,14.83
2022-11-14T13:46:07.566Z,15.90
2022-11-14T13:48:52.619Z,14.90
2022-11-14T13:51:45.408Z,14.97
2022-11-14T13:54:30.714Z,15.83
2022-11-14T13:57:21.717Z,14.87
2022-11-14T14:00:19.538Z,14.80
2022-11-14T14:03:24.033Z,15.27
2022-11-14T14:06:27.927Z,14.70
2022-11-14T14:09:32.910Z,14.90
2022-11-14T14:12:27.250Z,14.47
2022-11-14T14:15:20.772Z,14.40
2022-11-14T14:18:18.300Z,14.33
2022-11-14T14:21:10.162Z,15.43
2022-11-14T14:24:00.996Z,15.20
2022-11-14T14:26:49.068Z,14.80
2022-11-14T14:29:48.769Z,14.30
2022-11-14T14:32:34.144Z,14.73
2022-11-14T14:35:22.456Z,14.77
2022-11-14T14:38:21.543Z,15.47
2022-11-14T14:41:06.928Z,15.10
2022-11-14T14:43:54.214Z,14.80
2022-11-14T14:46:39.062Z,14.63
2022-11-14T14:49:28.439Z,14.97
2022-11-14T14:52:33.052Z,14.93
2022-11-14T14:55:19.811Z,14.80
2022-11-14T14:58:22.146Z,14.73
2022-11-14T15:01:15.561Z,14.10
2022-11-14T15:04:07.989Z,14.50
2022-11-14T15:06:55.899Z,14.63
2022-11-14T15:09:50.884Z,14.57
2022-11-14T15:12:36.071Z,14.30
2022-11-14T15:15:21.826Z,15.23
2022-11-14T15:18:08.588Z,15.40
2022-11-14T15:21:12.448Z,13.93
2022-11-14T15:23:58.553Z,14.00
2022-11-14T15:26:49.785Z,15.33
2022-11-14T15:29:35.066Z,16.23
2022-11-14T15:32:21.786Z,15.47
2022-11-14T15:35:25.525Z,15.90
2022-11-14T15:38:42.152Z,15.53
2022-11-14T15:41:18.778Z,14.70
2022-11-14T15:44:05.378Z,14.53
2022-11-14T15:46:50.793Z,14.53
2022-11-14T15:49:36.504Z,16.33
2022-11-14T15:52:24.602Z,16.10
2022-11-14T15:55:13.519Z,16.47
2022-11-14T15:58:26.107Z,16.10
2022-11-14T16:01:04.538Z,16.03
2022-11-14T16:03:51.633Z,14.63
2022-11-14T16:06:36.719Z,14.83
2022-11-14T16:09:21.919Z,14.97
2022-11-14T16:12:07.112Z,14.70
2022-11-14T16:14:52.674Z,14.90
2022-11-14T16:17:38.667Z,14.83
2022-11-14T16:20:25.329Z,15.40
2022-11-14T16:23:12.270Z,15.87
2022-11-14T16:25:57.231Z,13.27
2022-11-14T16:28:42.438Z,14.53
2022-11-14T16:31:27.678Z,14.37
2022-11-14T16:34:18.029Z,15.23
2022-11-14T16:37:03.731Z,16.20
2022-11-14T16:39:49.006Z,15.03
2022-11-14T16:42:34.487Z,15.60
2022-11-14T16:45:22.545Z,15.07
2022-11-14T16:48:07.592Z,15.93
2022-11-14T16:50:56.681Z,15.47
2022-11-14T16:53:42.411Z,16.40
2022-11-14T16:56:27.416Z,16.27
2022-11-14T16:59:12.720Z,15.73
2022-11-14T17:01:57.840Z,15.07
2022-11-14T17:04:44.151Z,15.07
2022-11-14T17:07:32.692Z,15.17
2022-11-14T17:10:17.961Z,15.97
2022-11-14T17:13:03.105Z,16.47
2022-11-14T17:15:48.153Z,16.43
2022-11-14T17:18:38.373Z,14.87
2022-11-14T17:21:23.915Z,17.03
2022-11-14T17:24:09.109Z,17.50
2022-11-14T17:26:54.362Z,17.27
2022-11-14T17:29:39.767Z,16.63
2022-11-14T17:32:24.741Z,17.03
2022-11-14T17:35:10.519Z,17.17
2022-11-14T17:38:00.091Z,17.53
2022-11-14T17:40:46.162Z,16.87
2022-11-14T17:43:38.451Z,17.67
2022-11-14T17:46:24.249Z,18.90
2022-11-14T17:49:09.624Z,18.30
2022-11-14T17:51:54.929Z,19.03
2022-11-14T17:54:40.281Z,18.07
2022-11-14T17:57:25.272Z,19.17
2022-11-14T18:00:10.905Z,18.70
2022-11-14T18:02:56.182Z,17.23
2022-11-14T18:05:41.218Z,18.47
2022-11-14T18:08:26.344Z,19.17
2022-11-14T18:11:12.681Z,18.80
2022-11-14T18:13:58.402Z,19.67
2022-11-14T18:17:11.110Z,19.20
2022-11-14T18:19:48.795Z,17.33
2022-11-14T18:22:34.040Z,18.37
2022-11-14T18:25:19.483Z,19.13
2022-11-14T18:28:04.806Z,18.97
2022-11-14T18:30:55.428Z,18.70
2022-11-14T18:33:41.527Z,19.00
2022-11-14T18:36:26.550Z,18.70
2022-11-14T18:39:11.873Z,20.27
2022-11-14T18:41:57.671Z,19.80
2022-11-14T18:44:42.907Z,20.10
2022-11-14T18:47:29.030Z,20.57
2022-11-14T18:50:14.320Z,19.93
2022-11-14T18:52:59.566Z,20.87
2022-11-14T18:55:45.070Z,19.23
2022-11-14T18:58:30.546Z,19.73
2022-11-14T19:01:24.881Z,20.80
2022-11-14T19:04:10.942Z,21.23
2022-11-14T19:06:56.401Z,20.73
2022-11-14T19:09:44.276Z,21.93
2022-11-14T19:12:29.587Z,21.73
2022-11-14T19:15:14.544Z,22.10
2022-11-14T19:17:59.451Z,20.47
2022-11-14T19:20:46.724Z,21.13
2022-11-14T19:23:33.585Z,19.77
2022-11-14T19:26:19.283Z,21.60
2022-11-14T19:29:05.861Z,21.00
2022-11-14T19:31:51.156Z,20.03
2022-11-14T19:34:36.307Z,20.67
2022-11-14T19:37:21.430Z,19.20
2022-11-14T19:40:06.900Z,20.27
2022-11-14T19:42:55.973Z,21.03
2022-11-14T19:45:41.183Z,20.30
2022-11-14T19:48:26.245Z,20.30
2022-11-14T19:51:12.266Z,20.40
2022-11-14T19:53:58.098Z,20.47
2022-11-14T19:56:43.226Z,20.23
2022-11-14T19:59:28.810Z,20.83
2022-11-14T20:02:14.040Z,20.27
2022-11-14T20:04:58.917Z,20.27
2022-11-14T20:07:43.945Z,20.50
2022-11-14T20:10:29.069Z,20.97
2022-11-14T20:13:14.695Z,20.63
2022-11-14T20:16:00.295Z,20.27
2022-11-14T20:18:46.541Z,21.57
2022-11-14T20:21:32.546Z,20.50
2022-11-14T20:24:21.528Z,20.80
2022-11-14T20:27:06.696Z,20.40
2022-11-14T20:29:52.226Z,20.40
2022-11-14T20:32:37.222Z,19.30
2022-11-14T20:35:22.172Z,20.90
2022-11-14T20:38:07.735Z,20.00
2022-11-14T20:40:56.339Z,19.73
2022-11-14T20:43:41.844Z,20.60
2022-11-14T20:46:26.948Z,19.00
2022-11-14T20:49:11.900Z,18.23
2022-11-14T20:51:57.365Z,18.83
2022-11-14T20:54:42.227Z,18.63
2022-11-14T20:57:27.795Z,17.43
2022-11-14T21:00:13.038Z,18.57
2022-11-14T21:02:58.469Z,17.77
2022-11-14T21:05:43.860Z,18.77
2022-11-14T21:08:29.626Z,17.53
2022-11-14T21:11:18.179Z,17.23
2022-11-14T21:14:04.415Z,17.07
2022-11-14T21:16:49.724Z,17.07
2022-11-14T21:19:35.251Z,16.90
2022-11-14T21:22:20.137Z,17.13
2022-11-14T21:25:05.512Z,17.83
2022-11-14T21:27:50.930Z,17.03
2022-11-14T21:30:36.038Z,16.60
2022-11-14T21:33:21.523Z,16.23
2022-11-14T21:36:37.629Z,16.80
2022-11-14T21:39:16.301Z,17.73
2022-11-14T21:42:01.769Z,17.57
2022-11-14T21:44:46.804Z,17.83
2022-11-14T21:47:33.067Z,17.70
2022-11-14T21:50:18.038Z,15.83
2022-11-14T21:53:03.109Z,16.97
2022-11-14T21:55:48.462Z,16.67
2022-11-14T21:58:33.595Z,16.77
2022-11-14T22:01:39.870Z,16.83
2022-11-14T22:04:25.111Z,17.83
2022-11-14T22:07:10.574Z,16.30
2022-11-14T22:09:55.999Z,16.97
2022-11-14T22:12:41.352Z,15.60
2022-11-14T22:15:26.945Z,16.00
2022-11-14T22:18:11.929Z,16.00
2022-11-14T22:20:59.520Z,16.10
2022-11-14T22:23:44.328Z,17.47
2022-11-14T22:26:29.559Z,15.93
2022-11-14T22:29:14.921Z,15.17
2022-11-14T22:31:59.906Z,17.00
2022-11-14T22:34:44.850Z,16.50
2022-11-14T22:37:32.118Z,16.27
2022-11-14T22:40:17.410Z,15.30
2022-11-14T22:43:02.313Z,15.90
2022-11-14T22:45:51.109Z,15.83
2022-11-14T22:48:36.148Z,16.13
2022-11-14T22:51:25.498Z,16.03
2022-11-14T22:54:10.875Z,15.57
2022-11-14T22:56:56.117Z,15.63
2022-11-14T22:59:41.503Z,14.40
2022-11-14T23:02:26.517Z,15.47
2022-11-14T23:05:11.303Z,15.87
2022-11-14T23:07:56.263Z,15.90
2022-11-14T23:10:41.658Z,16.20
2022-11-14T23:13:27.009Z,15.87
2022-11-14T23:16:13.618Z,15.83
2022-11-14T23:19:00.123Z,15.77
2022-11-14T23:21:45.316Z,16.07
2022-11-14T23:24:30.363Z,16.10
2022-11-14T23:27:15.330Z,15.57
2022-11-14T23:30:00.405Z,13.97
2022-11-14T23:32:45.671Z,14.97
2022-11-14T23:35:30.635Z,15.90
2022-11-14T23:38:15.774Z,15.03
2022-11-14T23:41:01.735Z,15.53
2022-11-14T23:43:47.293Z,15.97
2022-11-14T23:46:32.273Z,14.53
2022-11-14T23:49:17.561Z,14.93
2022-11-14T23:52:02.769Z,16.00
2022-11-14T23:54:47.921Z,14.80
2022-11-14T23:57:33.207Z,14.83
